Portada
METAR-TAF:

METAR-TAF

Aeroports :

Djibouti, Djibouti

latitud: 11-33N, longitud: 043-10E, altitud: 49 m

METAR: manca

Hora: 12:38 (09:38 UTC)

Pronòstic

L'informe es va fer fa 28 hores i 38 minuts, a les 05:00 UTC
Pronòstic vàlid del 20 a les 06 UTC al 21 a les 06 UTC
Vent 12 kt del Est
Visibilitat: 8000 m
Cel ennuvolat a una alçada de 2300 ft
Núvols disperses a una alçada de 3000 ft
xàfecs de pluja
Evolucionant progressivament
l' 20 a les 15 UTC al 20 a les 18 UTC
Vent 3 kt amb direcció variable
Núvols disperses a una alçada de 2000 ft
Evolucionant progressivament
l' 21 a les 00 UTC al 21 a les 03 UTC
Vent kt del Nord
Escasses núvols a una alçada de 2000 ft
Evolucionant progressivament
l' 21 a les 03 UTC al 21 a les 06 UTC
Vent 3 kt amb direcció variable
Núvols disperses a una alçada de 2000 ft

TAF: HDAM 200500Z 2006/2106 08012KT 8000 SHRA BKN023 SCT030 BECMG 2015/2018 VRB03KT SCT020 BECMG 2100/2103 00000KT FEW020 BECMG 2103/2106 VRB03KT SCT020

Observacions i pronòstics meteorològics de més de 4000 aeroports (METAR i TAF).

Les estacions disponibles són els punts grocs i vermells al mapa.

Posi el ratolí al punt desitjat per veure el nom de l'estació.

Feu clic per veure les observacions i els pronòstics meteorològics.

Per canviar el mapa: feu clic els botons verds amb una creu de color negre per apropar; al botó verd amb un guió per allunyar la imatge; o en les fletxes verdes per a mapes adjacents.


METAR-TAF: